sensor_id;sensor_type;location;lat;lon;timestamp;pressure;altitude;pressure_sealevel;temperature;humidity
66021;BME280;52789;59.980;30.346;2023-03-22T00:00:34;100912.56;;;0.67;100.00
66021;BME280;52789;59.980;30.346;2023-03-22T00:03:00;100911.72;;;0.66;100.00
66021;BME280;52789;59.980;30.346;2023-03-22T00:05:25;100911.84;;;0.65;100.00
66021;BME280;52789;59.980;30.346;2023-03-22T00:07:51;100913.06;;;0.59;100.00
66021;BME280;52789;59.980;30.346;2023-03-22T00:10:18;100906.50;;;0.52;100.00
66021;BME280;52789;59.980;30.346;2023-03-22T00:12:46;100908.38;;;0.50;100.00
66021;BME280;52789;59.980;30.346;2023-03-22T00:15:11;100910.78;;;0.53;100.00
66021;BME280;52789;59.980;30.346;2023-03-22T00:17:36;100908.91;;;0.55;100.00
66021;BME280;52789;59.980;30.346;2023-03-22T00:20:05;100908.06;;;0.54;100.00
66021;BME280;52789;59.980;30.346;2023-03-22T00:22:31;100910.16;;;0.49;100.00
66021;BME280;52789;59.980;30.346;2023-03-22T00:24:57;100907.81;;;0.45;100.00
66021;BME280;52789;59.980;30.346;2023-03-22T00:27:22;100915.78;;;0.43;100.00
66021;BME280;52789;59.980;30.346;2023-03-22T00:29:50;100909.50;;;0.46;100.00
66021;BME280;52789;59.980;30.346;2023-03-22T00:32:15;100912.66;;;0.51;100.00
66021;BME280;52789;59.980;30.346;2023-03-22T00:34:42;100905.66;;;0.51;100.00
66021;BME280;52789;59.980;30.346;2023-03-22T00:37:08;100902.66;;;0.43;100.00
66021;BME280;52789;59.980;30.346;2023-03-22T00:39:33;100911.56;;;0.41;100.00
66021;BME280;52789;59.980;30.346;2023-03-22T00:41:58;100915.03;;;0.41;100.00
66021;BME280;52789;59.980;30.346;2023-03-22T00:44:24;100913.06;;;0.45;100.00
66021;BME280;52789;59.980;30.346;2023-03-22T00:46:49;100910.91;;;0.51;100.00
66021;BME280;52789;59.980;30.346;2023-03-22T00:49:14;100907.44;;;0.51;100.00
66021;BME280;52789;59.980;30.346;2023-03-22T00:51:40;100916.03;;;0.53;100.00
66021;BME280;52789;59.980;30.346;2023-03-22T00:54:05;100909.50;;;0.60;100.00
66021;BME280;52789;59.980;30.346;2023-03-22T00:56:30;100911.19;;;0.61;100.00
66021;BME280;52789;59.980;30.346;2023-03-22T00:58:58;100905.38;;;0.56;100.00
66021;BME280;52789;59.980;30.346;2023-03-22T01:01:23;100908.06;;;0.54;100.00
66021;BME280;52789;59.980;30.346;2023-03-22T01:03:48;100911.72;;;0.52;100.00
66021;BME280;52789;59.980;30.346;2023-03-22T01:06:15;100904.25;;;0.46;100.00
66021;BME280;52789;59.980;30.346;2023-03-22T01:08:40;100907.63;;;0.48;100.00
66021;BME280;52789;59.980;30.346;2023-03-22T01:11:06;100913.31;;;0.54;100.00
66021;BME280;52789;59.980;30.346;2023-03-22T01:13:32;100909.31;;;0.49;100.00
66021;BME280;52789;59.980;30.346;2023-03-22T01:15:57;100912.88;;;0.48;100.00
66021;BME280;52789;59.980;30.346;2023-03-22T01:18:23;100912.50;;;0.40;100.00
66021;BME280;52789;59.980;30.346;2023-03-22T01:20:48;100915.22;;;0.38;100.00
66021;BME280;52789;59.980;30.346;2023-03-22T01:23:13;100925.13;;;0.33;100.00
66021;BME280;52789;59.980;30.346;2023-03-22T01:25:39;100910.81;;;0.24;100.00
66021;BME280;52789;59.980;30.346;2023-03-22T01:28:04;100924.84;;;0.23;100.00
66021;BME280;52789;59.980;30.346;2023-03-22T01:30:31;100917.91;;;0.22;100.00
66021;BME280;52789;59.980;30.346;2023-03-22T01:32:57;100921.66;;;0.18;100.00
66021;BME280;52789;59.980;30.346;2023-03-22T01:35:22;100908.56;;;0.18;100.00
66021;BME280;52789;59.980;30.346;2023-03-22T01:37:48;100912.66;;;0.22;100.00
66021;BME280;52789;59.980;30.346;2023-03-22T01:40:13;100913.88;;;0.17;100.00
66021;BME280;52789;59.980;30.346;2023-03-22T01:42:39;100912.03;;;0.19;100.00
66021;BME280;52789;59.980;30.346;2023-03-22T01:47:41;100921.19;;;0.12;100.00
66021;BME280;52789;59.980;30.346;2023-03-22T01:50:08;100912.22;;;0.16;100.00
66021;BME280;52789;59.980;30.346;2023-03-22T01:52:33;100920.53;;;0.22;100.00
66021;BME280;52789;59.980;30.346;2023-03-22T01:54:59;100920.53;;;0.22;100.00
66021;BME280;52789;59.980;30.346;2023-03-22T01:57:25;100922.69;;;0.16;100.00
66021;BME280;52789;59.980;30.346;2023-03-22T01:59:50;100926.88;;;0.18;100.00
66021;BME280;52789;59.980;30.346;2023-03-22T02:02:17;100923.44;;;0.18;100.00
66021;BME280;52789;59.980;30.346;2023-03-22T02:04:43;100930.25;;;0.06;100.00
66021;BME280;52789;59.980;30.346;2023-03-22T02:07:13;100921.25;;;-0.04;100.00
66021;BME280;52789;59.980;30.346;2023-03-22T02:09:43;100918.06;;;-0.09;100.00
66021;BME280;52789;59.980;30.346;2023-03-22T02:14:47;100927.59;;;-0.22;100.00
66021;BME280;52789;59.980;30.346;2023-03-22T02:17:45;100914.50;;;-0.22;100.00
66021;BME280;52789;59.980;30.346;2023-03-22T02:26:09;100919.19;;;-0.13;100.00
66021;BME280;52789;59.980;30.346;2023-03-22T02:49:36;100922.59;;;0.03;100.00
66021;BME280;52789;59.980;30.346;2023-03-22T02:52:07;100923.91;;;0.10;100.00
66021;BME280;52789;59.980;30.346;2023-03-22T02:54:36;100919.97;;;0.17;100.00
66021;BME280;52789;59.980;30.346;2023-03-22T02:57:06;100914.53;;;0.20;100.00
66021;BME280;52789;59.980;30.346;2023-03-22T02:59:32;100926.41;;;0.26;100.00
66021;BME280;52789;59.980;30.346;2023-03-22T03:02:01;100920.81;;;0.18;100.00
66021;BME280;52789;59.980;30.346;2023-03-22T03:04:29;100925.22;;;0.03;100.00
66021;BME280;52789;59.980;30.346;2023-03-22T03:06:56;100919.22;;;0.01;100.00
66021;BME280;52789;59.980;30.346;2023-03-22T03:09:23;100922.59;;;0.03;100.00
66021;BME280;52789;59.980;30.346;2023-03-22T03:11:50;100917.59;;;-0.02;100.00
66021;BME280;52789;59.980;30.346;2023-03-22T03:14:22;100919.56;;;-0.05;100.00
66021;BME280;52789;59.980;30.346;2023-03-22T03:16:55;100923.28;;;-0.09;100.00
66021;BME280;52789;59.980;30.346;2023-03-22T03:19:25;100926.47;;;-0.04;100.00
66021;BME280;52789;59.980;30.346;2023-03-22T03:22:15;100926.66;;;-0.07;100.00
66021;BME280;52789;59.980;30.346;2023-03-22T03:27:51;100926.97;;;0.03;100.00
66021;BME280;52789;59.980;30.346;2023-03-22T03:30:29;100923.25;;;0.07;100.00
66021;BME280;52789;59.980;30.346;2023-03-22T03:32:59;100928.00;;;0.00;100.00
66021;BME280;52789;59.980;30.346;2023-03-22T03:35:31;100930.78;;;-0.03;100.00
66021;BME280;52789;59.980;30.346;2023-03-22T03:38:05;100920.31;;;-0.03;100.00
66021;BME280;52789;59.980;30.346;2023-03-22T03:40:39;100919.03;;;0.04;100.00
66021;BME280;52789;59.980;30.346;2023-03-22T03:43:05;100920.91;;;0.02;100.00
66021;BME280;52789;59.980;30.346;2023-03-22T03:45:31;100921.06;;;-0.01;100.00
66021;BME280;52789;59.980;30.346;2023-03-22T03:47:59;100923.13;;;-0.06;100.00
66021;BME280;52789;59.980;30.346;2023-03-22T03:50:25;100924.03;;;-0.07;100.00
66021;BME280;52789;59.980;30.346;2023-03-22T03:52:53;100918.81;;;-0.07;100.00
66021;BME280;52789;59.980;30.346;2023-03-22T03:55:19;100922.09;;;-0.04;100.00
66021;BME280;52789;59.980;30.346;2023-03-22T03:57:45;100919.03;;;0.04;100.00
66021;BME280;52789;59.980;30.346;2023-03-22T04:00:11;100922.03;;;0.12;100.00
66021;BME280;52789;59.980;30.346;2023-03-22T04:02:38;100918.47;;;0.13;100.00
66021;BME280;52789;59.980;30.346;2023-03-22T04:05:04;100924.66;;;0.12;100.00
66021;BME280;52789;59.980;30.346;2023-03-22T04:07:31;100924.47;;;0.01;100.00
66021;BME280;52789;59.980;30.346;2023-03-22T04:09:56;100916.41;;;0.04;100.00
66021;BME280;52789;59.980;30.346;2023-03-22T04:12:22;100919.22;;;0.15;100.00
66021;BME280;52789;59.980;30.346;2023-03-22T04:14:47;100915.66;;;0.16;100.00
66021;BME280;52789;59.980;30.346;2023-03-22T04:17:12;100914.72;;;0.17;100.00
66021;BME280;52789;59.980;30.346;2023-03-22T04:19:37;100920.06;;;0.16;100.00
66021;BME280;52789;59.980;30.346;2023-03-22T04:22:03;100924.84;;;0.23;100.00
66021;BME280;52789;59.980;30.346;2023-03-22T04:27:34;100924.41;;;0.31;100.00
66021;BME280;52789;59.980;30.346;2023-03-22T04:29:59;100928.94;;;0.27;100.00
66021;BME280;52789;59.980;30.346;2023-03-22T04:32:25;100928.56;;;0.19;100.00
66021;BME280;52789;59.980;30.346;2023-03-22T04:34:50;100927.44;;;0.23;100.00
66021;BME280;52789;59.980;30.346;2023-03-22T04:37:16;100930.06;;;0.23;100.00
66021;BME280;52789;59.980;30.346;2023-03-22T04:39:42;100935.31;;;0.23;100.00
66021;BME280;52789;59.980;30.346;2023-03-22T04:42:08;100932.50;;;0.26;100.00
66021;BME280;52789;59.980;30.346;2023-03-22T04:44:33;100935.72;;;0.32;100.00
66021;BME280;52789;59.980;30.346;2023-03-22T04:46:58;100942.16;;;0.40;100.00
66021;BME280;52789;59.980;30.346;2023-03-22T04:49:24;100937.84;;;0.39;100.00
66021;BME280;52789;59.980;30.346;2023-03-22T04:51:51;100939.34;;;0.15;100.00
66021;BME280;52789;59.980;30.346;2023-03-22T04:54:16;100943.13;;;-0.05;100.00
66021;BME280;52789;59.980;30.346;2023-03-22T04:56:41;100931.72;;;-0.04;100.00
66021;BME280;52789;59.980;30.346;2023-03-22T04:59:07;100935.31;;;0.09;100.00
66021;BME280;52789;59.980;30.346;2023-03-22T05:01:32;100923.16;;;0.22;100.00
66021;BME280;52789;59.980;30.346;2023-03-22T05:03:59;100929.72;;;0.29;100.00
66021;BME280;52789;59.980;30.346;2023-03-22T05:06:24;100930.91;;;0.24;100.00
66021;BME280;52789;59.980;30.346;2023-03-22T05:08:51;100935.22;;;0.25;100.00
66021;BME280;52789;59.980;30.346;2023-03-22T05:11:16;100937.94;;;0.23;100.00
66021;BME280;52789;59.980;30.346;2023-03-22T05:13:43;100934.47;;;0.09;100.00
66021;BME280;52789;59.980;30.346;2023-03-22T05:16:09;100931.38;;;0.02;100.00
66021;BME280;52789;59.980;30.346;2023-03-22T05:18:34;100940.69;;;-0.08;100.00
66021;BME280;52789;59.980;30.346;2023-03-22T05:21:08;100939.00;;;-0.09;100.00
66021;BME280;52789;59.980;30.346;2023-03-22T05:23:35;100930.88;;;-0.05;100.00
66021;BME280;52789;59.980;30.346;2023-03-22T05:26:10;100932.88;;;0.06;100.00
66021;BME280;52789;59.980;30.346;2023-03-22T05:28:40;100941.28;;;0.11;100.00
66021;BME280;52789;59.980;30.346;2023-03-22T05:31:06;100931.84;;;0.23;100.00
66021;BME280;52789;59.980;30.346;2023-03-22T05:33:32;100932.25;;;0.31;100.00
66021;BME280;52789;59.980;30.346;2023-03-22T05:35:58;100921.69;;;0.33;100.00
66021;BME280;52789;59.980;30.346;2023-03-22T05:38:24;100925.78;;;0.37;100.00
66021;BME280;52789;59.980;30.346;2023-03-22T05:40:49;100926.44;;;0.40;100.00
66021;BME280;52789;59.980;30.346;2023-03-22T05:43:15;100926.91;;;0.33;100.00
66021;BME280;52789;59.980;30.346;2023-03-22T05:45:40;100936.16;;;0.24;100.00
66021;BME280;52789;59.980;30.346;2023-03-22T05:48:05;100928.75;;;0.16;100.00
66021;BME280;52789;59.980;30.346;2023-03-22T05:50:31;100942.22;;;0.10;100.00
66021;BME280;52789;59.980;30.346;2023-03-22T05:52:56;100945.03;;;0.07;100.00
66021;BME280;52789;59.980;30.346;2023-03-22T05:55:23;100936.91;;;0.12;100.00
66021;BME280;52789;59.980;30.346;2023-03-22T05:57:48;100945.03;;;0.07;100.00
66021;BME280;52789;59.980;30.346;2023-03-22T06:00:16;100945.03;;;0.07;100.00
66021;BME280;52789;59.980;30.346;2023-03-22T06:02:48;100946.25;;;0.16;100.00
66021;BME280;52789;59.980;30.346;2023-03-22T06:05:19;100942.03;;;0.27;100.00
66021;BME280;52789;59.980;30.346;2023-03-22T06:07:45;100937.75;;;0.26;99.83
66021;BME280;52789;59.980;30.346;2023-03-22T06:10:11;100932.91;;;0.35;100.00
66021;BME280;52789;59.980;30.346;2023-03-22T06:12:38;100930.66;;;0.43;99.82
66021;BME280;52789;59.980;30.346;2023-03-22T06:15:03;100932.78;;;0.50;99.58
66021;BME280;52789;59.980;30.346;2023-03-22T06:17:29;100925.78;;;0.51;98.51
66021;BME280;52789;59.980;30.346;2023-03-22T06:19:54;100920.53;;;0.51;98.62
66021;BME280;52789;59.980;30.346;2023-03-22T06:22:20;100924.75;;;0.53;98.33
66021;BME280;52789;59.980;30.346;2023-03-22T06:24:46;100924.47;;;0.58;97.53
66021;BME280;52789;59.980;30.346;2023-03-22T06:27:11;100914.16;;;0.55;97.25
66021;BME280;52789;59.980;30.346;2023-03-22T06:29:37;100914.91;;;0.57;97.51
66021;BME280;52789;59.980;30.346;2023-03-22T06:32:03;100920.72;;;0.62;97.64
66021;BME280;52789;59.980;30.346;2023-03-22T06:34:28;100917.88;;;0.79;97.91
66021;BME280;52789;59.980;30.346;2023-03-22T06:36:54;100921.97;;;0.98;97.18
66021;BME280;52789;59.980;30.346;2023-03-22T06:39:19;100914.69;;;1.15;96.56
66021;BME280;52789;59.980;30.346;2023-03-22T06:41:45;100922.44;;;1.31;96.28
66021;BME280;52789;59.980;30.346;2023-03-22T06:44:10;100919.09;;;1.15;93.80
66021;BME280;52789;59.980;30.346;2023-03-22T06:46:35;100923.47;;;1.02;95.10
66021;BME280;52789;59.980;30.346;2023-03-22T06:49:01;100918.41;;;0.99;95.35
66021;BME280;52789;59.980;30.346;2023-03-22T06:51:26;100917.28;;;1.03;95.76
66021;BME280;52789;59.980;30.346;2023-03-22T06:53:51;100917.47;;;1.00;94.89
66021;BME280;52789;59.980;30.346;2023-03-22T06:56:17;100918.63;;;0.96;95.89
66021;BME280;52789;59.980;30.346;2023-03-22T06:58:42;100914.41;;;0.93;95.55
66021;BME280;52789;59.980;30.346;2023-03-22T07:01:07;100919.00;;;0.75;96.01
66021;BME280;52789;59.980;30.346;2023-03-22T07:03:33;100919.16;;;0.86;96.63
66021;BME280;52789;59.980;30.346;2023-03-22T07:06:02;100916.03;;;1.08;96.83
66021;BME280;52789;59.980;30.346;2023-03-22T07:08:27;100916.31;;;1.18;94.85
66021;BME280;52789;59.980;30.346;2023-03-22T07:10:55;100913.41;;;1.08;94.27
66021;BME280;52789;59.980;30.346;2023-03-22T07:13:20;100922.31;;;1.06;94.58
66021;BME280;52789;59.980;30.346;2023-03-22T07:15:46;100924.31;;;1.02;94.17
66021;BME280;52789;59.980;30.346;2023-03-22T07:18:11;100913.22;;;1.11;94.26
66021;BME280;52789;59.980;30.346;2023-03-22T07:20:37;100921.47;;;1.19;93.82
66021;BME280;52789;59.980;30.346;2023-03-22T07:23:04;100912.69;;;1.33;94.48
66021;BME280;52789;59.980;30.346;2023-03-22T07:25:30;100912.44;;;1.63;93.77
66021;BME280;52789;59.980;30.346;2023-03-22T07:27:55;100923.72;;;1.78;91.82
66021;BME280;52789;59.980;30.346;2023-03-22T07:30:20;100918.91;;;1.84;91.21
66021;BME280;52789;59.980;30.346;2023-03-22T07:32:46;100914.69;;;1.82;91.02
66021;BME280;52789;59.980;30.346;2023-03-22T07:35:12;100912.59;;;1.87;90.78
66021;BME280;52789;59.980;30.346;2023-03-22T07:37:38;100918.69;;;1.75;90.41
66021;BME280;52789;59.980;30.346;2023-03-22T07:40:03;100911.34;;;1.80;91.35
66021;BME280;52789;59.980;30.346;2023-03-22T07:42:29;100913.97;;;1.93;90.65
66021;BME280;52789;59.980;30.346;2023-03-22T07:44:55;100908.81;;;1.91;89.70
66021;BME280;52789;59.980;30.346;2023-03-22T07:47:20;100903.88;;;1.99;90.25
66021;BME280;52789;59.980;30.346;2023-03-22T07:49:46;100901.47;;;2.22;89.88
66021;BME280;52789;59.980;30.346;2023-03-22T07:52:11;100894.75;;;2.43;89.67
66021;BME280;52789;59.980;30.346;2023-03-22T07:54:36;100887.69;;;2.43;88.66
66021;BME280;52789;59.980;30.346;2023-03-22T07:57:02;100898.53;;;2.39;88.53
66021;BME280;52789;59.980;30.346;2023-03-22T07:59:28;100899.91;;;2.32;88.76
66021;BME280;52789;59.980;30.346;2023-03-22T08:01:53;100902.31;;;2.35;88.94
66021;BME280;52789;59.980;30.346;2023-03-22T08:04:19;100898.84;;;2.22;89.02
66021;BME280;52789;59.980;30.346;2023-03-22T08:06:46;100897.28;;;2.19;89.32
66021;BME280;52789;59.980;30.346;2023-03-22T08:09:12;100892.84;;;2.20;88.74
66021;BME280;52789;59.980;30.346;2023-03-22T08:11:38;100892.53;;;2.24;89.28
66021;BME280;52789;59.980;30.346;2023-03-22T08:14:03;100889.91;;;2.37;88.51
66021;BME280;52789;59.980;30.346;2023-03-22T08:16:28;100877.69;;;2.48;88.67
66021;BME280;52789;59.980;30.346;2023-03-22T08:18:54;100878.53;;;2.62;88.44
66021;BME280;52789;59.980;30.346;2023-03-22T08:21:19;100872.25;;;2.75;87.94
66021;BME280;52789;59.980;30.346;2023-03-22T08:23:45;100870.22;;;2.92;88.19
66021;BME280;52789;59.980;30.346;2023-03-22T08:26:11;100869.38;;;3.15;87.14
66021;BME280;52789;59.980;30.346;2023-03-22T08:28:36;100865.25;;;3.24;85.95
66021;BME280;52789;59.980;30.346;2023-03-22T08:31:08;100864.78;;;3.30;85.60
66021;BME280;52789;59.980;30.346;2023-03-22T08:33:34;100867.53;;;3.28;85.02
66021;BME280;52789;59.980;30.346;2023-03-22T08:36:06;100870.53;;;3.11;85.67
66021;BME280;52789;59.980;30.346;2023-03-22T08:38:31;100867.97;;;2.98;85.80
66021;BME280;52789;59.980;30.346;2023-03-22T08:40:56;100863.09;;;3.05;85.84
66021;BME280;52789;59.980;30.346;2023-03-22T08:43:22;100856.88;;;3.06;85.96
66021;BME280;52789;59.980;30.346;2023-03-22T08:45:47;100859.47;;;3.19;86.33
66021;BME280;52789;59.980;30.346;2023-03-22T08:48:12;100850.28;;;3.24;85.17
66021;BME280;52789;59.980;30.346;2023-03-22T08:50:38;100848.19;;;3.17;85.69
66021;BME280;52789;59.980;30.346;2023-03-22T08:53:03;100845.56;;;3.17;83.96
66021;BME280;52789;59.980;30.346;2023-03-22T08:55:29;100840.41;;;3.15;84.75
66021;BME280;52789;59.980;30.346;2023-03-22T08:57:55;100847.34;;;3.16;85.23
66021;BME280;52789;59.980;30.346;2023-03-22T09:00:23;100843.78;;;3.17;84.50
66021;BME280;52789;59.980;30.346;2023-03-22T09:02:49;100844.34;;;3.33;84.22
66021;BME280;52789;59.980;30.346;2023-03-22T09:05:14;100841.53;;;3.48;84.34
66021;BME280;52789;59.980;30.346;2023-03-22T09:07:40;100838.06;;;3.58;83.11
66021;BME280;52789;59.980;30.346;2023-03-22T09:10:06;100836.03;;;3.62;81.63
66021;BME280;52789;59.980;30.346;2023-03-22T09:12:32;100840.13;;;3.66;82.27
66021;BME280;52789;59.980;30.346;2023-03-22T09:14:57;100852.09;;;3.70;81.66
66021;BME280;52789;59.980;30.346;2023-03-22T09:17:23;100836.50;;;3.56;80.66
66021;BME280;52789;59.980;30.346;2023-03-22T09:19:48;100841.97;;;3.41;82.06
66021;BME280;52789;59.980;30.346;2023-03-22T09:22:13;100844.94;;;3.37;82.66
66021;BME280;52789;59.980;30.346;2023-03-22T09:24:39;100832.19;;;3.55;81.77
66021;BME280;52789;59.980;30.346;2023-03-22T09:27:04;100831.25;;;3.67;81.96
66021;BME280;52789;59.980;30.346;2023-03-22T09:29:30;100835.09;;;3.63;80.22
66021;BME280;52789;59.980;30.346;2023-03-22T09:31:55;100826.88;;;3.43;81.73
66021;BME280;52789;59.980;30.346;2023-03-22T09:34:20;100835.97;;;3.39;82.13
66021;BME280;52789;59.980;30.346;2023-03-22T09:36:46;100827.81;;;3.31;82.19
66021;BME280;52789;59.980;30.346;2023-03-22T09:39:11;100833.91;;;3.32;81.82
66021;BME280;52789;59.980;30.346;2023-03-22T09:41:43;100839.03;;;3.22;82.33
66021;BME280;52789;59.980;30.346;2023-03-22T09:47:06;100822.41;;;2.74;83.95
66021;BME280;52789;59.980;30.346;2023-03-22T09:49:37;100825.47;;;2.68;84.31
66021;BME280;52789;59.980;30.346;2023-03-22T09:52:05;100828.34;;;2.65;85.26
66021;BME280;52789;59.980;30.346;2023-03-22T09:54:36;100832.44;;;2.56;86.20
66021;BME280;52789;59.980;30.346;2023-03-22T10:02:09;100829.13;;;2.41;87.42
66021;BME280;52789;59.980;30.346;2023-03-22T10:15:20;100827.69;;;2.25;89.78
66021;BME280;52789;59.980;30.346;2023-03-22T10:17:51;100826.22;;;2.33;89.48
66021;BME280;52789;59.980;30.346;2023-03-22T10:20:22;100830.72;;;2.31;89.22
66021;BME280;52789;59.980;30.346;2023-03-22T10:22:52;100828.31;;;2.28;89.50
66021;BME280;52789;59.980;30.346;2023-03-22T10:25:20;100833.56;;;2.28;89.79
66021;BME280;52789;59.980;30.346;2023-03-22T10:27:47;100817.19;;;2.12;90.28
66021;BME280;52789;59.980;30.346;2023-03-22T10:30:20;100821.00;;;2.08;91.11
66021;BME280;52789;59.980;30.346;2023-03-22T10:33:02;100817.75;;;2.04;91.49
66021;BME280;52789;59.980;30.346;2023-03-22T10:35:29;100812.16;;;1.96;91.87
66021;BME280;52789;59.980;30.346;2023-03-22T10:37:57;100810.69;;;1.92;91.91
66021;BME280;52789;59.980;30.346;2023-03-22T10:40:25;100814.69;;;1.98;92.43
66021;BME280;52789;59.980;30.346;2023-03-22T10:42:52;100810.16;;;2.00;92.51
66021;BME280;52789;59.980;30.346;2023-03-22T10:45:18;100799.13;;;2.07;92.94
66021;BME280;52789;59.980;30.346;2023-03-22T10:47:44;100795.94;;;2.28;92.13
66021;BME280;52789;59.980;30.346;2023-03-22T10:50:23;100793.41;;;2.39;91.41
66021;BME280;52789;59.980;30.346;2023-03-22T10:55:51;100794.41;;;2.49;90.97
66021;BME280;52789;59.980;30.346;2023-03-22T10:58:30;100786.25;;;2.41;91.49
66021;BME280;52789;59.980;30.346;2023-03-22T11:01:30;100778.97;;;2.44;91.40
66021;BME280;52789;59.980;30.346;2023-03-22T11:04:06;100770.03;;;2.47;92.12
66021;BME280;52789;59.980;30.346;2023-03-22T11:06:32;100766.22;;;2.51;91.69
66021;BME280;52789;59.980;30.346;2023-03-22T11:11:56;100770.53;;;2.52;91.74
66021;BME280;52789;59.980;30.346;2023-03-22T11:14:29;100760.19;;;2.62;91.79
66021;BME280;52789;59.980;30.346;2023-03-22T11:16:57;100762.03;;;2.72;91.81
66021;BME280;52789;59.980;30.346;2023-03-22T11:19:24;100755.59;;;2.76;91.34
66021;BME280;52789;59.980;30.346;2023-03-22T11:21:51;100755.44;;;2.67;91.40
66021;BME280;52789;59.980;30.346;2023-03-22T11:24:17;100759.84;;;2.66;91.89
66021;BME280;52789;59.980;30.346;2023-03-22T11:27:00;100754.59;;;2.66;91.61
66021;BME280;52789;59.980;30.346;2023-03-22T11:29:26;100748.38;;;2.67;92.03
66021;BME280;52789;59.980;30.346;2023-03-22T11:31:56;100740.16;;;2.72;92.05
66021;BME280;52789;59.980;30.346;2023-03-22T11:34:23;100735.97;;;2.69;92.03
66021;BME280;52789;59.980;30.346;2023-03-22T11:36:48;100731.59;;;2.57;92.41
66021;BME280;52789;59.980;30.346;2023-03-22T11:39:20;100727.13;;;2.46;93.09
66021;BME280;52789;59.980;30.346;2023-03-22T11:41:46;100715.03;;;2.44;93.46
66021;BME280;52789;59.980;30.346;2023-03-22T11:44:13;100719.81;;;2.39;93.53
66021;BME280;52789;59.980;30.346;2023-03-22T11:46:47;100710.75;;;2.43;93.87
66021;BME280;52789;59.980;30.346;2023-03-22T11:49:13;100714.38;;;2.53;93.81
66021;BME280;52789;59.980;30.346;2023-03-22T11:51:40;100708.44;;;2.62;93.78
66021;BME280;52789;59.980;30.346;2023-03-22T11:56:31;100705.78;;;2.86;92.93
66021;BME280;52789;59.980;30.346;2023-03-22T11:59:07;100700.91;;;2.93;93.36
66021;BME280;52789;59.980;30.346;2023-03-22T12:02:16;100694.13;;;3.01;92.65
66021;BME280;52789;59.980;30.346;2023-03-22T12:04:23;100697.28;;;2.83;92.70
66021;BME280;52789;59.980;30.346;2023-03-22T12:06:51;100697.97;;;2.73;93.02
66021;BME280;52789;59.980;30.346;2023-03-22T12:11:56;100688.41;;;2.72;94.13
66021;BME280;52789;59.980;30.346;2023-03-22T12:14:34;100687.59;;;2.83;93.36
66021;BME280;52789;59.980;30.346;2023-03-22T12:17:22;100685.25;;;2.91;93.19
66021;BME280;52789;59.980;30.346;2023-03-22T12:20:12;100680.66;;;2.82;92.04
66021;BME280;52789;59.980;30.346;2023-03-22T12:22:40;100678.59;;;2.74;92.23
66021;BME280;52789;59.980;30.346;2023-03-22T12:25:13;100673.56;;;2.71;92.46
66021;BME280;52789;59.980;30.346;2023-03-22T12:27:40;100666.19;;;2.76;92.88
66021;BME280;52789;59.980;30.346;2023-03-22T12:30:11;100648.59;;;2.77;91.90
66021;BME280;52789;59.980;30.346;2023-03-22T12:32:43;100657.34;;;2.77;91.70
66021;BME280;52789;59.980;30.346;2023-03-22T12:35:14;100640.25;;;2.83;91.61
66021;BME280;52789;59.980;30.346;2023-03-22T12:37:42;100637.25;;;2.88;91.30
66021;BME280;52789;59.980;30.346;2023-03-22T12:40:14;100630.13;;;2.90;91.34
66021;BME280;52789;59.980;30.346;2023-03-22T12:42:41;100634.44;;;3.02;91.66
66021;BME280;52789;59.980;30.346;2023-03-22T12:45:14;100618.91;;;3.10;91.62
66021;BME280;52789;59.980;30.346;2023-03-22T12:47:41;100624.88;;;3.12;91.80
66021;BME280;52789;59.980;30.346;2023-03-22T12:50:11;100623.47;;;3.19;91.96
66021;BME280;52789;59.980;30.346;2023-03-22T12:52:48;100614.75;;;3.19;91.96
66021;BME280;52789;59.980;30.346;2023-03-22T12:55:19;100616.28;;;3.21;92.23
66021;BME280;52789;59.980;30.346;2023-03-22T12:57:46;100604.09;;;3.20;92.15
66021;BME280;52789;59.980;30.346;2023-03-22T13:00:15;100604.31;;;3.17;92.11
66021;BME280;52789;59.980;30.346;2023-03-22T13:02:45;100600.47;;;3.10;92.02
66021;BME280;52789;59.980;30.346;2023-03-22T13:05:12;100587.19;;;3.11;92.30
66021;BME280;52789;59.980;30.346;2023-03-22T13:07:38;100578.09;;;3.16;91.13
66021;BME280;52789;59.980;30.346;2023-03-22T13:13:12;100556.94;;;3.06;91.06
66021;BME280;52789;59.980;30.346;2023-03-22T13:15:39;100562.09;;;3.19;91.16
66021;BME280;52789;59.980;30.346;2023-03-22T13:18:21;100553.34;;;3.29;90.07
66021;BME280;52789;59.980;30.346;2023-03-22T13:21:06;100543.03;;;3.37;89.79
66021;BME280;52789;59.980;30.346;2023-03-22T13:23:32;100548.31;;;3.49;88.88
66021;BME280;52789;59.980;30.346;2023-03-22T13:25:58;100548.66;;;3.44;87.97
66021;BME280;52789;59.980;30.346;2023-03-22T13:28:24;100547.34;;;3.38;87.69
66021;BME280;52789;59.980;30.346;2023-03-22T13:30:51;100546.16;;;3.31;88.18
66021;BME280;52789;59.980;30.346;2023-03-22T13:33:28;100539.47;;;3.27;88.47
66021;BME280;52789;59.980;30.346;2023-03-22T13:35:59;100523.44;;;3.30;88.77
66021;BME280;52789;59.980;30.346;2023-03-22T13:38:29;100527.63;;;3.33;88.17
66021;BME280;52789;59.980;30.346;2023-03-22T13:53:36;100491.19;;;2.95;91.37
66021;BME280;52789;59.980;30.346;2023-03-22T13:56:03;100481.88;;;2.91;92.45
66021;BME280;52789;59.980;30.346;2023-03-22T14:00:55;100478.25;;;3.03;91.55
66021;BME280;52789;59.980;30.346;2023-03-22T14:03:23;100481.25;;;2.98;91.89
66021;BME280;52789;59.980;30.346;2023-03-22T14:05:53;100474.19;;;2.99;92.21
66021;BME280;52789;59.980;30.346;2023-03-22T14:08:24;100467.25;;;2.87;93.33
66021;BME280;52789;59.980;30.346;2023-03-22T14:10:57;100464.28;;;2.91;94.09
66021;BME280;52789;59.980;30.346;2023-03-22T14:16:05;100448.94;;;3.07;93.00